createdAt,value
2019-03-30T00:00:26.879Z,8.42
2019-03-30T00:04:31.998Z,8.36
2019-03-30T00:08:36.747Z,8.30
2019-03-30T00:12:42.012Z,8.28
2019-03-30T00:16:47.221Z,8.14
2019-03-30T00:20:52.029Z,8.04
2019-03-30T00:24:56.788Z,8.01
2019-03-30T00:29:01.633Z,7.98
2019-03-30T00:33:06.382Z,7.95
2019-03-30T00:37:11.125Z,7.92
2019-03-30T00:41:15.901Z,7.90
2019-03-30T00:45:20.646Z,7.85
2019-03-30T00:49:25.487Z,7.77
2019-03-30T00:53:30.235Z,7.70
2019-03-30T00:57:35.099Z,7.64
2019-03-30T01:01:39.859Z,7.59
2019-03-30T01:05:44.559Z,7.53
2019-03-30T01:09:49.291Z,7.48
2019-03-30T01:13:54.048Z,7.44
2019-03-30T01:17:59.188Z,7.41
2019-03-30T01:22:04.103Z,7.32
2019-03-30T01:26:08.815Z,7.20
2019-03-30T01:30:23.038Z,7.12
2019-03-30T01:34:20.088Z,7.07
2019-03-30T01:38:24.849Z,7.03
2019-03-30T01:42:29.770Z,6.92
2019-03-30T01:46:34.519Z,6.73
2019-03-30T01:50:39.269Z,6.58
2019-03-30T01:54:44.030Z,6.47
2019-03-30T01:58:48.765Z,6.43
2019-03-30T02:02:53.509Z,6.44
2019-03-30T02:06:58.255Z,6.43
2019-03-30T02:11:03.493Z,6.42
2019-03-30T02:15:08.942Z,6.43
2019-03-30T02:19:13.705Z,6.44
2019-03-30T02:23:18.465Z,6.45
2019-03-30T02:27:23.186Z,6.45
2019-03-30T02:31:28.005Z,6.45
2019-03-30T02:35:32.927Z,6.46
2019-03-30T02:39:37.657Z,6.43
2019-03-30T02:43:42.398Z,6.38
2019-03-30T02:47:47.474Z,6.31
2019-03-30T02:51:52.259Z,6.26
2019-03-30T02:55:56.972Z,6.21
2019-03-30T03:00:01.849Z,6.13
2019-03-30T03:04:06.546Z,5.98
2019-03-30T03:08:13.929Z,5.89
2019-03-30T03:12:18.696Z,5.84
2019-03-30T03:16:27.105Z,5.84
2019-03-30T03:20:30.909Z,5.87
2019-03-30T03:24:35.632Z,5.92
2019-03-30T03:28:40.395Z,5.93
2019-03-30T03:32:45.493Z,5.92
2019-03-30T03:36:50.340Z,5.91
2019-03-30T03:40:55.124Z,5.87
2019-03-30T03:44:59.842Z,5.80
2019-03-30T03:49:04.592Z,5.77
2019-03-30T03:53:10.312Z,5.73
2019-03-30T03:57:16.715Z,5.72
2019-03-30T04:01:23.025Z,5.72
2019-03-30T04:05:29.270Z,5.67
2019-03-30T04:09:36.550Z,5.64
2019-03-30T04:13:43.237Z,5.62
2019-03-30T04:17:47.990Z,5.58
2019-03-30T04:21:52.744Z,5.56
2019-03-30T04:25:57.509Z,5.55
2019-03-30T04:30:02.302Z,5.52
2019-03-30T04:34:07.051Z,5.49
2019-03-30T04:38:14.266Z,5.47
2019-03-30T04:42:18.268Z,5.42
2019-03-30T04:46:23.019Z,5.35
2019-03-30T04:50:27.770Z,5.32
2019-03-30T04:54:32.527Z,5.32
2019-03-30T04:58:37.330Z,5.33
2019-03-30T05:02:42.074Z,5.33
2019-03-30T05:06:46.833Z,5.26
2019-03-30T05:10:51.589Z,5.22
2019-03-30T05:14:56.375Z,5.20
2019-03-30T05:19:01.317Z,5.13
2019-03-30T05:23:06.109Z,5.12
2019-03-30T05:27:11.146Z,5.14
2019-03-30T05:31:15.879Z,5.19
2019-03-30T05:35:20.820Z,5.23
2019-03-30T05:39:25.659Z,5.30
2019-03-30T05:43:30.372Z,5.35
2019-03-30T05:47:35.275Z,5.40
2019-03-30T05:51:40.078Z,5.46
2019-03-30T05:55:44.866Z,5.51
2019-03-30T05:59:49.658Z,5.56
2019-03-30T06:03:54.429Z,5.59
2019-03-30T06:07:59.206Z,5.66
2019-03-30T06:12:04.503Z,5.76
2019-03-30T06:16:09.367Z,5.85
2019-03-30T06:20:14.210Z,5.98
2019-03-30T06:24:18.960Z,6.11
2019-03-30T06:28:23.721Z,6.24
2019-03-30T06:32:28.778Z,6.35
2019-03-30T06:36:33.534Z,6.47
2019-03-30T06:40:38.480Z,6.62
2019-03-30T06:44:43.210Z,6.74
2019-03-30T06:48:47.982Z,6.89
2019-03-30T06:52:58.018Z,7.02
2019-03-30T06:56:59.388Z,7.16
2019-03-30T07:01:04.198Z,7.27
2019-03-30T07:05:09.676Z,7.37
2019-03-30T07:09:15.738Z,7.54
2019-03-30T07:13:20.609Z,7.73
2019-03-30T07:17:26.484Z,7.88
2019-03-30T07:21:31.624Z,8.05
2019-03-30T07:25:37.047Z,8.21
2019-03-30T07:29:41.863Z,8.35
2019-03-30T07:33:46.634Z,8.47
2019-03-30T07:37:51.546Z,8.58
2019-03-30T07:41:56.586Z,8.74
2019-03-30T07:46:01.311Z,8.93
2019-03-30T07:50:06.568Z,9.11
2019-03-30T07:54:11.367Z,9.22
2019-03-30T07:58:16.128Z,9.30
2019-03-30T08:02:21.023Z,9.38
2019-03-30T08:06:25.983Z,9.53
2019-03-30T08:10:30.772Z,9.61
2019-03-30T08:14:35.630Z,9.75
2019-03-30T08:18:40.469Z,9.93
2019-03-30T08:22:45.362Z,10.06
2019-03-30T08:26:50.582Z,10.14
2019-03-30T08:30:55.364Z,10.17
2019-03-30T08:35:00.526Z,10.24
2019-03-30T08:39:06.881Z,10.34
2019-03-30T08:43:11.671Z,10.44
2019-03-30T08:47:16.534Z,10.53
2019-03-30T08:51:21.634Z,10.65
2019-03-30T08:55:26.442Z,10.82
2019-03-30T08:59:31.204Z,11.00
2019-03-30T09:03:35.988Z,11.13
2019-03-30T09:07:40.781Z,11.26
2019-03-30T09:11:45.864Z,11.43
2019-03-30T09:15:50.593Z,11.77
2019-03-30T09:19:55.374Z,11.77
2019-03-30T09:24:09.401Z,12.02
2019-03-30T09:28:06.933Z,12.16
2019-03-30T09:32:14.569Z,12.28
2019-03-30T09:36:18.212Z,12.38
2019-03-30T09:40:22.974Z,12.57
2019-03-30T09:44:27.758Z,12.57
2019-03-30T09:48:32.529Z,12.78
2019-03-30T09:52:37.254Z,12.91
2019-03-30T09:56:42.534Z,13.13
2019-03-30T10:00:47.776Z,13.27
2019-03-30T10:04:53.969Z,13.40
2019-03-30T10:08:59.113Z,13.53
2019-03-30T10:13:03.830Z,13.70
2019-03-30T10:17:08.619Z,13.81
2019-03-30T10:21:13.395Z,13.86
2019-03-30T10:25:18.893Z,14.01
2019-03-30T10:29:25.790Z,14.15
2019-03-30T10:33:32.469Z,14.31
2019-03-30T10:37:38.084Z,14.43
2019-03-30T10:41:42.862Z,14.58
2019-03-30T10:45:47.789Z,14.71
2019-03-30T10:49:53.153Z,14.84
2019-03-30T10:53:58.020Z,14.98
2019-03-30T10:58:03.339Z,15.14
2019-03-30T11:02:08.086Z,15.18
2019-03-30T11:06:13.088Z,15.17
2019-03-30T11:10:18.225Z,15.25
2019-03-30T11:14:23.179Z,15.38
2019-03-30T11:18:28.326Z,15.54
2019-03-30T11:22:33.735Z,15.61
2019-03-30T11:26:38.604Z,15.69
2019-03-30T11:30:43.481Z,15.74
2019-03-30T11:34:48.244Z,15.79
2019-03-30T11:38:53.157Z,15.86
2019-03-30T11:42:57.909Z,15.86
2019-03-30T11:47:02.959Z,15.98
2019-03-30T11:51:07.808Z,16.04
2019-03-30T11:55:21.839Z,16.14
2019-03-30T11:59:20.119Z,16.15
2019-03-30T12:03:24.896Z,16.24
2019-03-30T12:07:32.260Z,16.33
2019-03-30T12:11:38.550Z,16.46
2019-03-30T12:15:43.305Z,16.46
2019-03-30T12:19:48.200Z,16.50
2019-03-30T12:23:52.967Z,16.58
2019-03-30T12:27:58.159Z,16.62
2019-03-30T12:32:02.910Z,16.68
2019-03-30T12:36:08.153Z,16.72
2019-03-30T12:40:13.700Z,16.78
2019-03-30T12:44:18.445Z,16.84
2019-03-30T12:48:23.197Z,16.87
2019-03-30T12:52:27.959Z,16.85
2019-03-30T12:56:32.681Z,16.82
2019-03-30T13:00:37.589Z,16.89
2019-03-30T13:04:42.331Z,17.08
2019-03-30T13:08:47.189Z,17.14
2019-03-30T13:12:51.957Z,17.12
2019-03-30T13:16:57.691Z,17.18
2019-03-30T13:21:04.193Z,17.21
2019-03-30T13:25:09.586Z,17.24
2019-03-30T13:29:15.104Z,17.33
2019-03-30T13:33:19.950Z,17.40
2019-03-30T13:37:24.715Z,17.40
2019-03-30T13:41:29.492Z,17.43
2019-03-30T13:45:34.378Z,17.44
2019-03-30T13:49:39.085Z,17.44
2019-03-30T13:53:43.889Z,17.49
2019-03-30T13:57:48.674Z,17.46
2019-03-30T14:01:53.808Z,17.50
2019-03-30T14:05:58.565Z,17.50
2019-03-30T14:10:03.428Z,17.57
2019-03-30T14:14:08.713Z,17.57
2019-03-30T14:18:13.589Z,17.59
2019-03-30T14:22:18.456Z,17.57
2019-03-30T14:26:31.210Z,17.55
2019-03-30T14:30:29.828Z,17.56
2019-03-30T14:34:34.572Z,17.58
2019-03-30T14:38:39.323Z,17.59
2019-03-30T14:42:44.107Z,17.58
2019-03-30T14:46:48.980Z,17.61
2019-03-30T14:50:53.730Z,17.60
2019-03-30T14:54:58.518Z,17.61
2019-03-30T14:59:09.911Z,17.61
2019-03-30T15:03:09.853Z,17.64
2019-03-30T15:07:14.594Z,17.67
2019-03-30T15:11:19.413Z,17.67
2019-03-30T15:15:24.168Z,17.66
2019-03-30T15:19:28.935Z,17.64
2019-03-30T15:23:33.699Z,17.65
2019-03-30T15:27:38.596Z,17.63
2019-03-30T15:31:43.321Z,17.62
2019-03-30T15:35:48.200Z,17.60
2019-03-30T15:39:53.069Z,17.62
2019-03-30T15:43:57.803Z,17.60
2019-03-30T15:48:02.974Z,17.59
2019-03-30T15:52:13.741Z,17.58
2019-03-30T15:56:14.634Z,17.59
2019-03-30T16:00:19.577Z,17.61
2019-03-30T16:04:24.324Z,17.59
2019-03-30T16:08:29.101Z,17.58
2019-03-30T16:12:33.868Z,17.59
2019-03-30T16:16:38.636Z,17.58
2019-03-30T16:20:43.503Z,17.58
2019-03-30T16:24:48.430Z,17.56
2019-03-30T16:28:53.270Z,17.53
2019-03-30T16:32:59.095Z,17.52
2019-03-30T16:37:03.977Z,17.49
2019-03-30T16:41:08.827Z,17.47
2019-03-30T16:45:15.197Z,17.46
2019-03-30T16:49:20.091Z,17.43
2019-03-30T16:53:24.930Z,17.35
2019-03-30T16:57:42.396Z,17.33
2019-03-30T17:01:36.313Z,17.26
2019-03-30T17:05:41.180Z,17.19
2019-03-30T17:09:46.103Z,17.14
2019-03-30T17:13:50.871Z,17.06
2019-03-30T17:17:57.369Z,16.98
2019-03-30T17:22:02.101Z,16.92
2019-03-30T17:26:07.617Z,16.81
2019-03-30T17:30:13.347Z,16.72
2019-03-30T17:34:18.916Z,16.63
2019-03-30T17:38:23.608Z,16.53
2019-03-30T17:42:28.320Z,16.45
2019-03-30T17:46:33.090Z,16.35
2019-03-30T17:50:37.984Z,16.25
2019-03-30T17:54:42.753Z,16.17
2019-03-30T17:58:47.473Z,16.07
2019-03-30T18:02:52.238Z,15.96
2019-03-30T18:06:57.060Z,15.84
2019-03-30T18:11:04.016Z,15.76
2019-03-30T18:15:09.473Z,15.68
2019-03-30T18:19:14.331Z,15.56
2019-03-30T18:23:19.207Z,15.38
2019-03-30T18:27:23.962Z,15.20
2019-03-30T18:31:28.696Z,15.04
2019-03-30T18:35:34.425Z,15.00
2019-03-30T18:39:39.534Z,14.87
2019-03-30T18:43:44.323Z,14.78
2019-03-30T18:47:49.885Z,14.63
2019-03-30T18:51:55.035Z,14.45
2019-03-30T18:55:59.794Z,14.27
2019-03-30T19:00:04.990Z,14.09
2019-03-30T19:04:09.733Z,14.00
2019-03-30T19:08:14.469Z,14.03
2019-03-30T19:12:19.238Z,14.09
2019-03-30T19:16:24.024Z,14.09
2019-03-30T19:20:28.833Z,14.05
2019-03-30T19:24:33.608Z,13.90
2019-03-30T19:28:38.375Z,13.79
2019-03-30T19:32:43.146Z,13.67
2019-03-30T19:36:47.907Z,13.49
2019-03-30T19:40:52.662Z,13.40
2019-03-30T19:44:58.139Z,13.33
2019-03-30T19:49:03.000Z,13.25
2019-03-30T19:53:07.768Z,13.13
2019-03-30T19:57:12.573Z,13.06
2019-03-30T20:01:17.386Z,12.97
2019-03-30T20:05:22.152Z,12.84
2019-03-30T20:09:26.912Z,12.74
2019-03-30T20:13:31.776Z,12.66
2019-03-30T20:17:36.596Z,12.52
2019-03-30T20:21:41.471Z,12.52
2019-03-30T20:25:46.232Z,12.45
2019-03-30T20:29:50.998Z,12.42
2019-03-30T20:33:56.198Z,12.38
2019-03-30T20:38:01.141Z,12.34
2019-03-30T20:42:06.187Z,12.30
2019-03-30T20:46:10.974Z,12.31
2019-03-30T20:50:16.002Z,12.19
2019-03-30T20:54:20.790Z,11.90
2019-03-30T20:58:25.551Z,11.90
2019-03-30T21:02:30.376Z,11.79
2019-03-30T21:06:35.094Z,11.79
2019-03-30T21:10:40.304Z,11.79
2019-03-30T21:14:45.047Z,11.78
2019-03-30T21:18:49.828Z,11.77
2019-03-30T21:22:54.591Z,11.73
2019-03-30T21:26:59.330Z,11.73
2019-03-30T21:31:04.252Z,11.66
2019-03-30T21:35:09.617Z,11.57
2019-03-30T21:39:14.409Z,11.50
2019-03-30T21:43:19.771Z,11.47
2019-03-30T21:47:24.668Z,11.47
2019-03-30T21:51:29.440Z,11.42
2019-03-30T21:55:34.571Z,11.31
2019-03-30T21:59:39.358Z,11.24
2019-03-30T22:03:44.211Z,11.19
2019-03-30T22:07:49.152Z,11.11
2019-03-30T22:11:54.015Z,11.06
2019-03-30T22:15:58.782Z,11.05
2019-03-30T22:20:05.128Z,11.05
2019-03-30T22:24:10.001Z,10.99
2019-03-30T22:28:14.771Z,10.93
2019-03-30T22:32:19.636Z,10.90
2019-03-30T22:36:24.774Z,10.85
2019-03-30T22:40:29.903Z,10.80
2019-03-30T22:44:34.657Z,10.72
2019-03-30T22:48:39.428Z,10.60
2019-03-30T22:52:44.308Z,10.53
2019-03-30T22:56:49.092Z,10.41
2019-03-30T23:01:05.851Z,10.28
2019-03-30T23:05:10.882Z,10.15
2019-03-30T23:09:15.652Z,10.10
2019-03-30T23:13:20.378Z,10.09
2019-03-30T23:17:25.228Z,10.07
2019-03-30T23:21:30.017Z,10.05
2019-03-30T23:25:34.821Z,10.04
2019-03-30T23:29:39.588Z,10.03
2019-03-30T23:33:44.474Z,10.02
2019-03-30T23:37:49.584Z,9.99
2019-03-30T23:41:54.427Z,9.99
2019-03-30T23:45:59.285Z,9.96
2019-03-30T23:50:04.103Z,9.92
2019-03-30T23:54:13.887Z,9.89
2019-03-30T23:58:18.715Z,9.87
